sensor_id;sensor_type;location;lat;lon;timestamp;P1;durP1;ratioP1;P2;durP2;ratioP2
19026;SDS011;9646;52.034;5.554;2023-03-31T00:02:12;11.27;;;2.75;;
19026;SDS011;9646;52.034;5.554;2023-03-31T00:04:39;8.20;;;3.33;;
19026;SDS011;9646;52.034;5.554;2023-03-31T00:07:09;9.85;;;2.67;;
19026;SDS011;9646;52.034;5.554;2023-03-31T00:09:37;8.07;;;2.30;;
19026;SDS011;9646;52.034;5.554;2023-03-31T00:12:06;9.77;;;2.72;;
19026;SDS011;9646;52.034;5.554;2023-03-31T00:14:33;9.80;;;2.15;;
19026;SDS011;9646;52.034;5.554;2023-03-31T00:17:00;11.20;;;2.63;;
19026;SDS011;9646;52.034;5.554;2023-03-31T00:19:29;7.53;;;2.38;;
19026;SDS011;9646;52.034;5.554;2023-03-31T00:21:57;8.70;;;2.63;;
19026;SDS011;9646;52.034;5.554;2023-03-31T00:24:26;8.60;;;2.45;;
19026;SDS011;9646;52.034;5.554;2023-03-31T00:26:56;11.52;;;2.45;;
19026;SDS011;9646;52.034;5.554;2023-03-31T00:29:23;8.15;;;2.45;;
19026;SDS011;9646;52.034;5.554;2023-03-31T00:31:50;8.18;;;2.30;;
19026;SDS011;9646;52.034;5.554;2023-03-31T00:34:17;10.55;;;2.90;;
19026;SDS011;9646;52.034;5.554;2023-03-31T00:36:46;8.75;;;2.55;;
19026;SDS011;9646;52.034;5.554;2023-03-31T00:39:13;7.10;;;2.08;;
19026;SDS011;9646;52.034;5.554;2023-03-31T00:41:41;8.13;;;2.22;;
19026;SDS011;9646;52.034;5.554;2023-03-31T00:44:10;8.80;;;2.92;;
19026;SDS011;9646;52.034;5.554;2023-03-31T00:46:39;8.30;;;2.58;;
19026;SDS011;9646;52.034;5.554;2023-03-31T00:49:10;9.23;;;2.13;;
19026;SDS011;9646;52.034;5.554;2023-03-31T00:51:38;5.13;;;1.98;;
19026;SDS011;9646;52.034;5.554;2023-03-31T00:54:07;8.25;;;2.70;;
19026;SDS011;9646;52.034;5.554;2023-03-31T00:56:36;7.32;;;2.42;;
19026;SDS011;9646;52.034;5.554;2023-03-31T00:59:06;8.23;;;2.28;;
19026;SDS011;9646;52.034;5.554;2023-03-31T01:01:34;7.88;;;2.88;;
19026;SDS011;9646;52.034;5.554;2023-03-31T01:04:03;7.07;;;2.50;;
19026;SDS011;9646;52.034;5.554;2023-03-31T01:06:31;9.52;;;2.85;;
19026;SDS011;9646;52.034;5.554;2023-03-31T01:08:59;7.45;;;2.70;;
19026;SDS011;9646;52.034;5.554;2023-03-31T01:11:32;9.27;;;2.50;;
19026;SDS011;9646;52.034;5.554;2023-03-31T01:14:00;6.60;;;2.45;;
19026;SDS011;9646;52.034;5.554;2023-03-31T01:16:28;8.20;;;2.35;;
19026;SDS011;9646;52.034;5.554;2023-03-31T01:18:55;6.93;;;2.40;;
19026;SDS011;9646;52.034;5.554;2023-03-31T01:21:43;9.65;;;2.63;;
19026;SDS011;9646;52.034;5.554;2023-03-31T01:24:21;5.38;;;2.08;;
19026;SDS011;9646;52.034;5.554;2023-03-31T01:27:02;6.80;;;2.35;;
19026;SDS011;9646;52.034;5.554;2023-03-31T01:32:24;7.43;;;2.58;;
19026;SDS011;9646;52.034;5.554;2023-03-31T01:35:05;3.88;;;1.95;;
19026;SDS011;9646;52.034;5.554;2023-03-31T01:40:40;9.82;;;2.65;;
19026;SDS011;9646;52.034;5.554;2023-03-31T01:43:11;7.57;;;2.55;;
19026;SDS011;9646;52.034;5.554;2023-03-31T01:45:43;5.00;;;2.08;;
19026;SDS011;9646;52.034;5.554;2023-03-31T01:48:13;5.32;;;1.60;;
19026;SDS011;9646;52.034;5.554;2023-03-31T01:50:43;7.05;;;2.28;;
19026;SDS011;9646;52.034;5.554;2023-03-31T01:53:13;5.35;;;2.00;;
19026;SDS011;9646;52.034;5.554;2023-03-31T01:55:45;5.22;;;1.55;;
19026;SDS011;9646;52.034;5.554;2023-03-31T01:58:14;11.85;;;2.50;;
19026;SDS011;9646;52.034;5.554;2023-03-31T02:00:44;11.18;;;2.03;;
19026;SDS011;9646;52.034;5.554;2023-03-31T02:03:16;6.47;;;2.03;;
19026;SDS011;9646;52.034;5.554;2023-03-31T02:05:46;5.70;;;2.05;;
19026;SDS011;9646;52.034;5.554;2023-03-31T02:08:14;6.60;;;2.00;;
19026;SDS011;9646;52.034;5.554;2023-03-31T02:10:43;10.63;;;2.30;;
19026;SDS011;9646;52.034;5.554;2023-03-31T02:13:12;5.55;;;2.03;;
19026;SDS011;9646;52.034;5.554;2023-03-31T02:15:42;7.75;;;2.15;;
19026;SDS011;9646;52.034;5.554;2023-03-31T02:18:11;9.88;;;2.67;;
19026;SDS011;9646;52.034;5.554;2023-03-31T02:20:41;7.88;;;2.50;;
19026;SDS011;9646;52.034;5.554;2023-03-31T02:23:10;9.90;;;2.42;;
19026;SDS011;9646;52.034;5.554;2023-03-31T02:25:40;6.90;;;1.85;;
19026;SDS011;9646;52.034;5.554;2023-03-31T02:28:11;9.43;;;2.50;;
19026;SDS011;9646;52.034;5.554;2023-03-31T02:30:42;8.93;;;2.15;;
19026;SDS011;9646;52.034;5.554;2023-03-31T02:33:10;9.40;;;2.30;;
19026;SDS011;9646;52.034;5.554;2023-03-31T02:35:37;7.28;;;2.58;;
19026;SDS011;9646;52.034;5.554;2023-03-31T02:38:04;9.18;;;2.60;;
19026;SDS011;9646;52.034;5.554;2023-03-31T02:40:32;10.10;;;2.70;;
19026;SDS011;9646;52.034;5.554;2023-03-31T02:42:59;6.28;;;2.08;;
19026;SDS011;9646;52.034;5.554;2023-03-31T02:45:41;9.27;;;2.38;;
19026;SDS011;9646;52.034;5.554;2023-03-31T02:48:09;8.10;;;2.25;;
19026;SDS011;9646;52.034;5.554;2023-03-31T02:50:41;9.85;;;2.92;;
19026;SDS011;9646;52.034;5.554;2023-03-31T02:53:12;10.73;;;2.30;;
19026;SDS011;9646;52.034;5.554;2023-03-31T02:55:48;5.72;;;1.95;;
19026;SDS011;9646;52.034;5.554;2023-03-31T02:58:26;8.65;;;2.30;;
19026;SDS011;9646;52.034;5.554;2023-03-31T03:01:16;4.97;;;2.25;;
19026;SDS011;9646;52.034;5.554;2023-03-31T03:03:49;7.57;;;2.38;;
19026;SDS011;9646;52.034;5.554;2023-03-31T03:06:25;8.38;;;2.70;;
19026;SDS011;9646;52.034;5.554;2023-03-31T03:09:04;8.55;;;2.13;;
19026;SDS011;9646;52.034;5.554;2023-03-31T03:11:37;9.10;;;2.30;;
19026;SDS011;9646;52.034;5.554;2023-03-31T03:14:06;5.93;;;2.40;;
19026;SDS011;9646;52.034;5.554;2023-03-31T03:16:37;11.82;;;3.08;;
19026;SDS011;9646;52.034;5.554;2023-03-31T03:19:06;6.97;;;2.40;;
19026;SDS011;9646;52.034;5.554;2023-03-31T03:21:33;8.43;;;2.30;;
19026;SDS011;9646;52.034;5.554;2023-03-31T03:24:00;6.88;;;2.20;;
19026;SDS011;9646;52.034;5.554;2023-03-31T03:26:27;7.80;;;2.20;;
19026;SDS011;9646;52.034;5.554;2023-03-31T03:28:54;6.78;;;2.13;;
19026;SDS011;9646;52.034;5.554;2023-03-31T03:31:22;6.25;;;1.60;;
19026;SDS011;9646;52.034;5.554;2023-03-31T03:33:51;3.83;;;1.55;;
19026;SDS011;9646;52.034;5.554;2023-03-31T03:36:18;6.20;;;1.60;;
19026;SDS011;9646;52.034;5.554;2023-03-31T03:38:46;5.72;;;1.98;;
19026;SDS011;9646;52.034;5.554;2023-03-31T03:41:14;5.78;;;1.75;;
19026;SDS011;9646;52.034;5.554;2023-03-31T03:43:41;6.15;;;1.90;;
19026;SDS011;9646;52.034;5.554;2023-03-31T03:46:08;6.25;;;1.90;;
19026;SDS011;9646;52.034;5.554;2023-03-31T03:48:35;7.95;;;2.00;;
19026;SDS011;9646;52.034;5.554;2023-03-31T03:51:03;6.53;;;1.98;;
19026;SDS011;9646;52.034;5.554;2023-03-31T03:53:31;6.03;;;1.42;;
19026;SDS011;9646;52.034;5.554;2023-03-31T03:55:58;5.38;;;1.50;;
19026;SDS011;9646;52.034;5.554;2023-03-31T03:58:25;6.63;;;1.52;;
19026;SDS011;9646;52.034;5.554;2023-03-31T04:00:52;6.50;;;1.92;;
19026;SDS011;9646;52.034;5.554;2023-03-31T04:03:20;4.75;;;1.42;;
19026;SDS011;9646;52.034;5.554;2023-03-31T04:05:48;6.47;;;1.65;;
19026;SDS011;9646;52.034;5.554;2023-03-31T04:08:16;4.03;;;1.08;;
19026;SDS011;9646;52.034;5.554;2023-03-31T04:10:44;8.45;;;1.95;;
19026;SDS011;9646;52.034;5.554;2023-03-31T04:13:13;6.78;;;1.50;;
19026;SDS011;9646;52.034;5.554;2023-03-31T04:15:40;2.90;;;0.88;;
19026;SDS011;9646;52.034;5.554;2023-03-31T04:18:08;5.32;;;1.48;;
19026;SDS011;9646;52.034;5.554;2023-03-31T04:20:42;4.00;;;1.13;;
19026;SDS011;9646;52.034;5.554;2023-03-31T04:23:09;4.25;;;1.10;;
19026;SDS011;9646;52.034;5.554;2023-03-31T04:25:40;5.10;;;1.42;;
19026;SDS011;9646;52.034;5.554;2023-03-31T04:28:10;5.13;;;1.60;;
19026;SDS011;9646;52.034;5.554;2023-03-31T04:30:38;6.15;;;1.80;;
19026;SDS011;9646;52.034;5.554;2023-03-31T04:33:06;4.13;;;1.83;;
19026;SDS011;9646;52.034;5.554;2023-03-31T04:35:33;5.30;;;1.48;;
19026;SDS011;9646;52.034;5.554;2023-03-31T04:38:13;4.15;;;1.52;;
19026;SDS011;9646;52.034;5.554;2023-03-31T04:40:44;5.25;;;1.55;;
19026;SDS011;9646;52.034;5.554;2023-03-31T04:43:11;7.38;;;1.50;;
19026;SDS011;9646;52.034;5.554;2023-03-31T04:45:38;4.65;;;1.70;;
19026;SDS011;9646;52.034;5.554;2023-03-31T04:48:05;5.22;;;1.52;;
19026;SDS011;9646;52.034;5.554;2023-03-31T04:50:32;7.72;;;2.50;;
19026;SDS011;9646;52.034;5.554;2023-03-31T04:52:59;8.18;;;2.40;;
19026;SDS011;9646;52.034;5.554;2023-03-31T04:55:26;8.38;;;2.30;;
19026;SDS011;9646;52.034;5.554;2023-03-31T04:57:55;6.78;;;2.40;;
19026;SDS011;9646;52.034;5.554;2023-03-31T05:00:22;9.73;;;2.53;;
19026;SDS011;9646;52.034;5.554;2023-03-31T05:02:50;6.95;;;2.20;;
19026;SDS011;9646;52.034;5.554;2023-03-31T05:05:18;7.03;;;2.15;;
19026;SDS011;9646;52.034;5.554;2023-03-31T05:07:45;7.78;;;2.15;;
19026;SDS011;9646;52.034;5.554;2023-03-31T05:10:12;9.43;;;1.92;;
19026;SDS011;9646;52.034;5.554;2023-03-31T05:12:39;6.70;;;1.80;;
19026;SDS011;9646;52.034;5.554;2023-03-31T05:15:08;6.82;;;1.88;;
19026;SDS011;9646;52.034;5.554;2023-03-31T05:17:35;6.47;;;1.75;;
19026;SDS011;9646;52.034;5.554;2023-03-31T05:20:03;6.63;;;1.45;;
19026;SDS011;9646;52.034;5.554;2023-03-31T05:22:32;7.57;;;1.80;;
19026;SDS011;9646;52.034;5.554;2023-03-31T05:24:59;5.97;;;1.65;;
19026;SDS011;9646;52.034;5.554;2023-03-31T05:27:27;7.45;;;1.55;;
19026;SDS011;9646;52.034;5.554;2023-03-31T05:29:54;7.57;;;1.80;;
19026;SDS011;9646;52.034;5.554;2023-03-31T05:32:22;8.50;;;2.03;;
19026;SDS011;9646;52.034;5.554;2023-03-31T05:34:49;6.25;;;1.92;;
19026;SDS011;9646;52.034;5.554;2023-03-31T05:37:21;6.85;;;1.75;;
19026;SDS011;9646;52.034;5.554;2023-03-31T05:39:48;7.53;;;2.15;;
19026;SDS011;9646;52.034;5.554;2023-03-31T05:42:15;6.93;;;2.03;;
19026;SDS011;9646;52.034;5.554;2023-03-31T05:44:42;6.38;;;1.50;;
19026;SDS011;9646;52.034;5.554;2023-03-31T05:47:09;6.70;;;1.67;;
19026;SDS011;9646;52.034;5.554;2023-03-31T05:49:38;4.28;;;1.63;;
19026;SDS011;9646;52.034;5.554;2023-03-31T05:52:06;5.07;;;1.80;;
19026;SDS011;9646;52.034;5.554;2023-03-31T05:54:33;6.03;;;1.75;;
19026;SDS011;9646;52.034;5.554;2023-03-31T05:57:00;8.32;;;1.95;;
19026;SDS011;9646;52.034;5.554;2023-03-31T05:59:27;7.65;;;1.85;;
19026;SDS011;9646;52.034;5.554;2023-03-31T06:01:54;5.47;;;1.50;;
19026;SDS011;9646;52.034;5.554;2023-03-31T06:04:22;6.90;;;1.75;;
19026;SDS011;9646;52.034;5.554;2023-03-31T06:06:50;5.53;;;1.85;;
19026;SDS011;9646;52.034;5.554;2023-03-31T06:09:18;5.38;;;1.70;;
19026;SDS011;9646;52.034;5.554;2023-03-31T06:11:45;4.75;;;1.08;;
19026;SDS011;9646;52.034;5.554;2023-03-31T06:14:12;4.95;;;1.30;;
19026;SDS011;9646;52.034;5.554;2023-03-31T06:16:39;6.75;;;1.95;;
19026;SDS011;9646;52.034;5.554;2023-03-31T06:19:06;6.22;;;1.60;;
19026;SDS011;9646;52.034;5.554;2023-03-31T06:21:33;5.82;;;1.55;;
19026;SDS011;9646;52.034;5.554;2023-03-31T06:24:02;6.50;;;1.73;;
19026;SDS011;9646;52.034;5.554;2023-03-31T06:26:29;6.47;;;1.40;;
19026;SDS011;9646;52.034;5.554;2023-03-31T06:28:56;4.00;;;1.50;;
19026;SDS011;9646;52.034;5.554;2023-03-31T06:31:23;6.90;;;1.92;;
19026;SDS011;9646;52.034;5.554;2023-03-31T06:33:50;5.50;;;1.35;;
19026;SDS011;9646;52.034;5.554;2023-03-31T06:36:18;5.15;;;1.40;;
19026;SDS011;9646;52.034;5.554;2023-03-31T06:38:45;4.25;;;1.40;;
19026;SDS011;9646;52.034;5.554;2023-03-31T06:41:14;6.78;;;1.65;;
19026;SDS011;9646;52.034;5.554;2023-03-31T06:43:42;3.30;;;1.38;;
19026;SDS011;9646;52.034;5.554;2023-03-31T06:46:09;3.70;;;1.27;;
19026;SDS011;9646;52.034;5.554;2023-03-31T06:48:36;6.65;;;1.75;;
19026;SDS011;9646;52.034;5.554;2023-03-31T06:51:04;3.20;;;1.20;;
19026;SDS011;9646;52.034;5.554;2023-03-31T06:53:31;5.35;;;1.45;;
19026;SDS011;9646;52.034;5.554;2023-03-31T06:55:58;4.43;;;1.00;;
19026;SDS011;9646;52.034;5.554;2023-03-31T06:58:27;4.03;;;1.25;;
19026;SDS011;9646;52.034;5.554;2023-03-31T07:00:54;3.53;;;1.30;;
19026;SDS011;9646;52.034;5.554;2023-03-31T07:03:21;4.10;;;1.02;;
19026;SDS011;9646;52.034;5.554;2023-03-31T07:05:49;5.45;;;1.17;;
19026;SDS011;9646;52.034;5.554;2023-03-31T07:08:17;3.28;;;1.25;;
19026;SDS011;9646;52.034;5.554;2023-03-31T07:10:44;4.18;;;1.30;;
19026;SDS011;9646;52.034;5.554;2023-03-31T07:13:13;4.80;;;1.70;;
19026;SDS011;9646;52.034;5.554;2023-03-31T07:15:41;2.53;;;1.08;;
19026;SDS011;9646;52.034;5.554;2023-03-31T07:18:08;4.38;;;1.25;;
19026;SDS011;9646;52.034;5.554;2023-03-31T07:20:36;4.65;;;1.20;;
19026;SDS011;9646;52.034;5.554;2023-03-31T07:23:04;6.18;;;1.27;;
19026;SDS011;9646;52.034;5.554;2023-03-31T07:25:32;2.83;;;1.27;;
19026;SDS011;9646;52.034;5.554;2023-03-31T07:27:59;8.57;;;1.63;;
19026;SDS011;9646;52.034;5.554;2023-03-31T07:30:26;2.88;;;0.82;;
19026;SDS011;9646;52.034;5.554;2023-03-31T07:32:55;4.28;;;1.30;;
19026;SDS011;9646;52.034;5.554;2023-03-31T07:35:22;3.60;;;1.23;;
19026;SDS011;9646;52.034;5.554;2023-03-31T07:37:49;2.80;;;1.08;;
19026;SDS011;9646;52.034;5.554;2023-03-31T07:40:18;3.58;;;1.30;;
19026;SDS011;9646;52.034;5.554;2023-03-31T07:42:46;5.50;;;1.20;;
19026;SDS011;9646;52.034;5.554;2023-03-31T07:45:13;3.55;;;1.58;;
19026;SDS011;9646;52.034;5.554;2023-03-31T07:47:41;5.50;;;1.50;;
19026;SDS011;9646;52.034;5.554;2023-03-31T07:50:10;3.85;;;1.38;;
19026;SDS011;9646;52.034;5.554;2023-03-31T07:52:37;3.40;;;1.40;;
19026;SDS011;9646;52.034;5.554;2023-03-31T07:55:05;5.95;;;1.20;;
19026;SDS011;9646;52.034;5.554;2023-03-31T07:57:33;3.28;;;1.13;;
19026;SDS011;9646;52.034;5.554;2023-03-31T08:00:00;2.75;;;1.20;;
19026;SDS011;9646;52.034;5.554;2023-03-31T08:02:30;2.55;;;1.40;;
19026;SDS011;9646;52.034;5.554;2023-03-31T08:04:57;4.00;;;1.15;;
19026;SDS011;9646;52.034;5.554;2023-03-31T08:07:26;5.10;;;1.10;;
19026;SDS011;9646;52.034;5.554;2023-03-31T08:09:54;4.13;;;1.25;;
19026;SDS011;9646;52.034;5.554;2023-03-31T08:12:22;4.97;;;1.30;;
19026;SDS011;9646;52.034;5.554;2023-03-31T08:14:49;3.25;;;1.35;;
19026;SDS011;9646;52.034;5.554;2023-03-31T08:17:16;5.30;;;1.58;;
19026;SDS011;9646;52.034;5.554;2023-03-31T08:19:43;3.95;;;1.33;;
19026;SDS011;9646;52.034;5.554;2023-03-31T08:22:10;2.92;;;1.17;;
19026;SDS011;9646;52.034;5.554;2023-03-31T08:24:39;3.45;;;0.88;;
19026;SDS011;9646;52.034;5.554;2023-03-31T08:27:06;5.15;;;1.08;;
19026;SDS011;9646;52.034;5.554;2023-03-31T08:29:33;3.00;;;1.10;;
19026;SDS011;9646;52.034;5.554;2023-03-31T08:32:00;2.33;;;1.17;;
19026;SDS011;9646;52.034;5.554;2023-03-31T08:34:27;2.50;;;0.95;;
19026;SDS011;9646;52.034;5.554;2023-03-31T08:36:54;2.35;;;1.05;;
19026;SDS011;9646;52.034;5.554;2023-03-31T08:39:21;3.45;;;0.90;;
19026;SDS011;9646;52.034;5.554;2023-03-31T08:41:52;3.33;;;1.35;;
19026;SDS011;9646;52.034;5.554;2023-03-31T08:44:21;2.92;;;1.20;;
19026;SDS011;9646;52.034;5.554;2023-03-31T08:46:50;6.78;;;2.17;;
19026;SDS011;9646;52.034;5.554;2023-03-31T08:49:19;5.82;;;1.90;;
19026;SDS011;9646;52.034;5.554;2023-03-31T08:51:47;12.50;;;3.35;;
19026;SDS011;9646;52.034;5.554;2023-03-31T08:54:16;9.45;;;3.08;;
19026;SDS011;9646;52.034;5.554;2023-03-31T08:56:45;12.20;;;3.25;;
19026;SDS011;9646;52.034;5.554;2023-03-31T08:59:17;16.45;;;4.18;;
19026;SDS011;9646;52.034;5.554;2023-03-31T09:01:45;12.85;;;3.55;;
19026;SDS011;9646;52.034;5.554;2023-03-31T09:04:17;13.85;;;3.25;;
19026;SDS011;9646;52.034;5.554;2023-03-31T09:06:49;13.63;;;3.35;;
19026;SDS011;9646;52.034;5.554;2023-03-31T09:09:19;16.92;;;3.97;;
19026;SDS011;9646;52.034;5.554;2023-03-31T09:11:49;13.98;;;3.85;;
19026;SDS011;9646;52.034;5.554;2023-03-31T09:14:21;13.50;;;3.30;;
19026;SDS011;9646;52.034;5.554;2023-03-31T09:16:52;13.55;;;3.22;;
19026;SDS011;9646;52.034;5.554;2023-03-31T09:19:24;9.60;;;3.13;;
19026;SDS011;9646;52.034;5.554;2023-03-31T09:21:56;13.93;;;3.78;;
19026;SDS011;9646;52.034;5.554;2023-03-31T09:24:26;15.63;;;3.72;;
19026;SDS011;9646;52.034;5.554;2023-03-31T09:26:56;10.52;;;3.55;;
19026;SDS011;9646;52.034;5.554;2023-03-31T09:29:27;14.13;;;3.78;;
19026;SDS011;9646;52.034;5.554;2023-03-31T09:31:59;12.75;;;3.38;;
19026;SDS011;9646;52.034;5.554;2023-03-31T09:34:28;16.05;;;4.03;;
19026;SDS011;9646;52.034;5.554;2023-03-31T09:36:56;10.23;;;3.67;;
19026;SDS011;9646;52.034;5.554;2023-03-31T09:39:23;16.90;;;3.95;;
19026;SDS011;9646;52.034;5.554;2023-03-31T09:41:50;14.70;;;3.58;;
19026;SDS011;9646;52.034;5.554;2023-03-31T09:44:21;15.18;;;4.43;;
19026;SDS011;9646;52.034;5.554;2023-03-31T09:46:50;13.43;;;3.70;;
19026;SDS011;9646;52.034;5.554;2023-03-31T09:49:18;10.85;;;2.97;;
19026;SDS011;9646;52.034;5.554;2023-03-31T09:51:47;14.13;;;3.80;;
19026;SDS011;9646;52.034;5.554;2023-03-31T09:54:18;13.48;;;3.65;;
19026;SDS011;9646;52.034;5.554;2023-03-31T09:56:47;13.68;;;4.05;;
19026;SDS011;9646;52.034;5.554;2023-03-31T09:59:18;14.18;;;3.55;;
19026;SDS011;9646;52.034;5.554;2023-03-31T10:01:46;17.52;;;3.72;;
19026;SDS011;9646;52.034;5.554;2023-03-31T10:04:18;12.60;;;3.35;;
19026;SDS011;9646;52.034;5.554;2023-03-31T10:06:46;18.35;;;4.05;;
19026;SDS011;9646;52.034;5.554;2023-03-31T10:09:14;11.82;;;3.83;;
19026;SDS011;9646;52.034;5.554;2023-03-31T10:11:50;13.52;;;3.50;;
19026;SDS011;9646;52.034;5.554;2023-03-31T10:14:18;14.18;;;3.10;;
19026;SDS011;9646;52.034;5.554;2023-03-31T10:16:52;14.95;;;4.07;;
19026;SDS011;9646;52.034;5.554;2023-03-31T10:19:21;15.15;;;3.25;;
19026;SDS011;9646;52.034;5.554;2023-03-31T10:21:54;12.82;;;3.40;;
19026;SDS011;9646;52.034;5.554;2023-03-31T10:24:21;14.98;;;3.13;;
19026;SDS011;9646;52.034;5.554;2023-03-31T10:26:49;11.48;;;3.20;;
19026;SDS011;9646;52.034;5.554;2023-03-31T10:29:20;12.40;;;2.80;;
19026;SDS011;9646;52.034;5.554;2023-03-31T10:31:49;10.23;;;3.08;;
19026;SDS011;9646;52.034;5.554;2023-03-31T10:34:17;13.13;;;3.05;;
19026;SDS011;9646;52.034;5.554;2023-03-31T10:36:47;12.63;;;3.00;;
19026;SDS011;9646;52.034;5.554;2023-03-31T10:39:15;9.80;;;2.75;;
19026;SDS011;9646;52.034;5.554;2023-03-31T10:41:47;14.50;;;3.33;;
19026;SDS011;9646;52.034;5.554;2023-03-31T10:44:29;11.70;;;3.13;;
19026;SDS011;9646;52.034;5.554;2023-03-31T10:47:02;14.65;;;3.08;;
19026;SDS011;9646;52.034;5.554;2023-03-31T10:49:30;13.32;;;3.05;;
19026;SDS011;9646;52.034;5.554;2023-03-31T10:52:10;11.13;;;3.22;;
19026;SDS011;9646;52.034;5.554;2023-03-31T10:54:42;13.07;;;2.75;;
19026;SDS011;9646;52.034;5.554;2023-03-31T10:57:11;14.40;;;3.22;;
19026;SDS011;9646;52.034;5.554;2023-03-31T10:59:41;15.57;;;3.25;;
19026;SDS011;9646;52.034;5.554;2023-03-31T11:04:58;11.15;;;3.30;;
19026;SDS011;9646;52.034;5.554;2023-03-31T11:07:43;13.27;;;3.17;;
19026;SDS011;9646;52.034;5.554;2023-03-31T11:10:18;11.30;;;3.05;;
19026;SDS011;9646;52.034;5.554;2023-03-31T11:12:48;9.80;;;2.50;;
19026;SDS011;9646;52.034;5.554;2023-03-31T11:15:18;15.25;;;3.03;;
19026;SDS011;9646;52.034;5.554;2023-03-31T11:17:53;10.60;;;2.50;;
19026;SDS011;9646;52.034;5.554;2023-03-31T11:20:27;12.57;;;3.08;;
19026;SDS011;9646;52.034;5.554;2023-03-31T11:23:01;12.85;;;2.88;;
19026;SDS011;9646;52.034;5.554;2023-03-31T11:25:33;16.25;;;3.35;;
19026;SDS011;9646;52.034;5.554;2023-03-31T11:28:28;14.30;;;3.40;;
19026;SDS011;9646;52.034;5.554;2023-03-31T11:31:01;11.35;;;2.58;;
19026;SDS011;9646;52.034;5.554;2023-03-31T11:33:39;11.30;;;2.85;;
19026;SDS011;9646;52.034;5.554;2023-03-31T11:36:12;14.07;;;3.03;;
19026;SDS011;9646;52.034;5.554;2023-03-31T11:38:53;11.00;;;2.63;;
19026;SDS011;9646;52.034;5.554;2023-03-31T11:41:27;15.25;;;3.83;;
19026;SDS011;9646;52.034;5.554;2023-03-31T11:43:56;14.43;;;3.28;;
19026;SDS011;9646;52.034;5.554;2023-03-31T11:46:30;8.63;;;2.55;;
19026;SDS011;9646;52.034;5.554;2023-03-31T11:48:58;11.45;;;2.70;;
19026;SDS011;9646;52.034;5.554;2023-03-31T11:51:27;11.93;;;2.88;;
19026;SDS011;9646;52.034;5.554;2023-03-31T11:53:57;12.88;;;3.05;;
19026;SDS011;9646;52.034;5.554;2023-03-31T11:56:27;15.80;;;3.45;;
19026;SDS011;9646;52.034;5.554;2023-03-31T11:58:56;10.10;;;3.05;;
19026;SDS011;9646;52.034;5.554;2023-03-31T12:01:26;13.18;;;4.03;;
19026;SDS011;9646;52.034;5.554;2023-03-31T12:03:57;12.20;;;3.13;;
19026;SDS011;9646;52.034;5.554;2023-03-31T12:06:28;10.98;;;3.20;;
19026;SDS011;9646;52.034;5.554;2023-03-31T12:09:06;11.57;;;2.88;;
19026;SDS011;9646;52.034;5.554;2023-03-31T12:11:39;10.65;;;3.17;;
19026;SDS011;9646;52.034;5.554;2023-03-31T12:14:10;12.35;;;3.10;;
19026;SDS011;9646;52.034;5.554;2023-03-31T12:16:39;11.07;;;2.50;;
19026;SDS011;9646;52.034;5.554;2023-03-31T12:19:10;9.70;;;2.83;;
19026;SDS011;9646;52.034;5.554;2023-03-31T12:21:40;9.73;;;2.83;;
19026;SDS011;9646;52.034;5.554;2023-03-31T12:24:11;11.57;;;2.75;;
19026;SDS011;9646;52.034;5.554;2023-03-31T12:26:40;14.63;;;3.80;;
19026;SDS011;9646;52.034;5.554;2023-03-31T12:29:15;14.13;;;3.42;;
19026;SDS011;9646;52.034;5.554;2023-03-31T12:31:45;9.10;;;2.95;;
19026;SDS011;9646;52.034;5.554;2023-03-31T12:34:12;12.50;;;3.00;;
19026;SDS011;9646;52.034;5.554;2023-03-31T12:36:44;14.38;;;3.42;;
19026;SDS011;9646;52.034;5.554;2023-03-31T12:39:20;12.60;;;3.30;;
19026;SDS011;9646;52.034;5.554;2023-03-31T12:41:56;14.60;;;3.33;;
19026;SDS011;9646;52.034;5.554;2023-03-31T12:44:27;12.60;;;3.47;;
19026;SDS011;9646;52.034;5.554;2023-03-31T12:47:00;12.13;;;3.00;;
19026;SDS011;9646;52.034;5.554;2023-03-31T12:49:32;13.02;;;3.75;;
19026;SDS011;9646;52.034;5.554;2023-03-31T12:52:03;13.52;;;3.53;;
19026;SDS011;9646;52.034;5.554;2023-03-31T12:54:38;13.30;;;3.58;;
19026;SDS011;9646;52.034;5.554;2023-03-31T12:57:14;14.13;;;3.70;;
19026;SDS011;9646;52.034;5.554;2023-03-31T12:59:45;11.15;;;3.58;;
19026;SDS011;9646;52.034;5.554;2023-03-31T13:02:24;11.75;;;3.70;;
19026;SDS011;9646;52.034;5.554;2023-03-31T13:04:52;11.70;;;3.13;;
19026;SDS011;9646;52.034;5.554;2023-03-31T13:07:34;10.57;;;2.90;;
19026;SDS011;9646;52.034;5.554;2023-03-31T13:12:54;10.60;;;3.00;;
19026;SDS011;9646;52.034;5.554;2023-03-31T13:15:22;13.25;;;3.33;;
19026;SDS011;9646;52.034;5.554;2023-03-31T13:17:53;9.30;;;3.03;;
19026;SDS011;9646;52.034;5.554;2023-03-31T13:23:16;11.18;;;3.13;;
19026;SDS011;9646;52.034;5.554;2023-03-31T13:25:45;8.85;;;2.17;;
19026;SDS011;9646;52.034;5.554;2023-03-31T13:28:15;12.32;;;3.20;;
19026;SDS011;9646;52.034;5.554;2023-03-31T13:30:44;10.25;;;2.35;;
19026;SDS011;9646;52.034;5.554;2023-03-31T13:33:11;10.98;;;2.75;;
19026;SDS011;9646;52.034;5.554;2023-03-31T13:35:40;11.77;;;2.38;;
19026;SDS011;9646;52.034;5.554;2023-03-31T13:38:12;10.73;;;2.63;;
19026;SDS011;9646;52.034;5.554;2023-03-31T13:40:50;9.15;;;3.10;;
19026;SDS011;9646;52.034;5.554;2023-03-31T13:46:15;11.10;;;2.40;;
19026;SDS011;9646;52.034;5.554;2023-03-31T13:48:49;7.82;;;2.33;;
19026;SDS011;9646;52.034;5.554;2023-03-31T13:51:25;7.97;;;2.03;;
19026;SDS011;9646;52.034;5.554;2023-03-31T13:56:54;8.10;;;2.50;;
19026;SDS011;9646;52.034;5.554;2023-03-31T13:59:39;8.25;;;1.83;;
19026;SDS011;9646;52.034;5.554;2023-03-31T14:05:07;6.38;;;2.17;;
19026;SDS011;9646;52.034;5.554;2023-03-31T14:07:39;8.48;;;2.00;;
19026;SDS011;9646;52.034;5.554;2023-03-31T14:10:20;5.47;;;1.95;;
19026;SDS011;9646;52.034;5.554;2023-03-31T14:12:47;9.98;;;2.15;;
19026;SDS011;9646;52.034;5.554;2023-03-31T14:15:17;9.23;;;1.85;;
19026;SDS011;9646;52.034;5.554;2023-03-31T14:17:45;8.05;;;2.03;;
19026;SDS011;9646;52.034;5.554;2023-03-31T14:20:19;6.70;;;1.77;;
19026;SDS011;9646;52.034;5.554;2023-03-31T14:22:51;8.10;;;1.88;;
19026;SDS011;9646;52.034;5.554;2023-03-31T14:25:25;6.20;;;2.00;;
19026;SDS011;9646;52.034;5.554;2023-03-31T14:27:57;7.07;;;1.75;;
19026;SDS011;9646;52.034;5.554;2023-03-31T14:30:29;5.15;;;1.85;;
19026;SDS011;9646;52.034;5.554;2023-03-31T14:33:03;8.45;;;2.08;;
19026;SDS011;9646;52.034;5.554;2023-03-31T14:35:33;9.65;;;2.08;;
19026;SDS011;9646;52.034;5.554;2023-03-31T14:38:03;5.32;;;1.70;;
19026;SDS011;9646;52.034;5.554;2023-03-31T14:40:31;5.53;;;1.50;;
19026;SDS011;9646;52.034;5.554;2023-03-31T14:42:59;4.38;;;1.48;;
19026;SDS011;9646;52.034;5.554;2023-03-31T14:45:29;5.80;;;1.80;;
19026;SDS011;9646;52.034;5.554;2023-03-31T14:48:02;5.18;;;1.75;;
19026;SDS011;9646;52.034;5.554;2023-03-31T14:50:32;5.75;;;1.50;;
19026;SDS011;9646;52.034;5.554;2023-03-31T14:53:01;3.47;;;1.35;;
19026;SDS011;9646;52.034;5.554;2023-03-31T14:55:29;4.90;;;1.25;;
19026;SDS011;9646;52.034;5.554;2023-03-31T14:57:57;7.78;;;1.70;;
19026;SDS011;9646;52.034;5.554;2023-03-31T15:00:26;5.20;;;1.38;;
19026;SDS011;9646;52.034;5.554;2023-03-31T15:02:54;6.63;;;1.45;;
19026;SDS011;9646;52.034;5.554;2023-03-31T15:05:24;5.55;;;1.40;;
19026;SDS011;9646;52.034;5.554;2023-03-31T15:07:54;4.50;;;1.20;;
19026;SDS011;9646;52.034;5.554;2023-03-31T15:10:23;3.15;;;1.23;;
19026;SDS011;9646;52.034;5.554;2023-03-31T15:12:51;2.65;;;1.27;;
19026;SDS011;9646;52.034;5.554;2023-03-31T15:15:18;5.35;;;1.67;;
19026;SDS011;9646;52.034;5.554;2023-03-31T15:17:46;4.38;;;1.30;;
19026;SDS011;9646;52.034;5.554;2023-03-31T15:20:22;3.90;;;1.20;;
19026;SDS011;9646;52.034;5.554;2023-03-31T15:22:53;3.40;;;1.60;;
19026;SDS011;9646;52.034;5.554;2023-03-31T15:25:20;3.50;;;1.48;;
19026;SDS011;9646;52.034;5.554;2023-03-31T15:27:52;3.58;;;1.30;;
19026;SDS011;9646;52.034;5.554;2023-03-31T15:30:20;5.38;;;1.70;;
19026;SDS011;9646;52.034;5.554;2023-03-31T15:32:49;3.13;;;1.20;;
19026;SDS011;9646;52.034;5.554;2023-03-31T15:35:19;2.15;;;1.00;;
19026;SDS011;9646;52.034;5.554;2023-03-31T15:37:48;4.10;;;1.60;;